Time;durP1;ratioP1;P1;durP2;ratioP2;P2;SDS_P1;SDS_P2;PMS_P1;PMS_P2;Temp;Humidity;BMP_temperature;BMP_pressure;BME280_temperature;BME280_humidity;BME280_pressure;Samples;Min_cycle;Max_cycle;Signal;HPM_P1;HPM_P2
2023/05/17 00:01:04;;;;;;;;;4.00;4.00;;;;;12.34;80.86;102400.44;5079773;28;45275;-71
2023/05/17 00:03:29;;;;;;;;;6.00;4.33;;;;;12.32;79.60;102408.47;5067591;28;45305;-71
2023/05/17 00:05:54;;;;;;;;;9.33;4.33;;;;;12.22;78.13;102387.53;5080755;28;45443;-72
2023/05/17 00:08:20;;;;;;;;;6.67;5.33;;;;;12.28;79.07;102400.63;5081042;27;45992;-71
2023/05/17 00:10:45;;;;;;;;;7.67;6.33;;;;;12.16;77.53;102380.66;5061974;28;45435;-71
2023/05/17 00:13:10;;;;;;;;;3.67;3.00;;;;;12.22;79.47;102395.50;5061826;28;45443;-72
2023/05/17 00:15:36;;;;;;;;;5.33;4.33;;;;;12.22;78.07;102408.78;5068627;28;45433;-71
2023/05/17 00:18:01;;;;;;;;;4.00;4.00;;;;;12.20;78.23;102395.56;5060753;28;51244;-71
2023/05/17 00:20:26;;;;;;;;;4.67;4.00;;;;;12.12;78.32;102391.38;5062400;28;55664;-71
2023/05/17 00:22:51;;;;;;;;;4.00;4.00;;;;;12.16;79.42;102393.03;5061017;27;45512;-72
2023/05/17 00:25:17;;;;;;;;;6.00;6.00;;;;;12.02;78.45;102378.38;5069265;28;45284;-72
2023/05/17 00:27:42;;;;;;;;;4.33;4.33;;;;;12.10;78.95;102386.13;5061172;28;45435;-71
2023/05/17 00:30:08;;;;;;;;;3.00;2.00;;;;;12.14;77.83;102398.38;5074607;28;45376;-72
2023/05/17 00:32:33;;;;;;;;;4.00;4.00;;;;;12.10;78.54;102386.13;5073283;28;45407;-71
2023/05/17 00:34:58;;;;;;;;;6.67;5.00;;;;;12.09;78.20;102389.69;5075880;28;47518;-71
2023/05/17 00:37:24;;;;;;;;;4.67;4.67;;;;;12.07;78.29;102391.53;5070004;28;45411;-72
2023/05/17 00:39:49;;;;;;;;;7.33;5.67;;;;;12.08;80.39;102398.53;5060766;28;45408;-72
2023/05/17 00:42:14;;;;;;;;;6.00;4.67;;;;;12.08;78.63;102402.97;5070999;28;47226;-71
2023/05/17 00:44:40;;;;;;;;;4.00;4.00;;;;;12.05;80.45;102395.97;5074671;27;45352;-71
2023/05/17 00:47:05;;;;;;;;;5.00;5.00;;;;;12.04;80.08;102394.25;5060910;28;45400;-71
2023/05/17 00:49:31;;;;;;;;;8.33;5.00;;;;;11.99;79.44;102391.72;5065867;28;45449;-72
2023/05/17 00:51:57;;;;;;;;;4.00;3.67;;;;;11.99;79.98;102399.69;5077664;28;45209;-72
2023/05/17 00:54:24;;;;;;;;;8.00;6.00;;;;;12.03;79.24;102403.13;5065163;28;45508;-72
2023/05/17 00:56:51;;;;;;;;;7.67;5.00;;;;;12.01;80.42;102397.84;5068442;28;46022;-72
2023/05/17 00:59:16;;;;;;;;;4.00;4.00;;;;;11.89;81.90;102379.63;5067763;28;45428;-72
2023/05/17 01:01:42;;;;;;;;;4.33;4.33;;;;;11.98;81.64;102389.09;5069571;28;45463;-71
2023/05/17 01:04:08;;;;;;;;;9.33;5.33;;;;;11.98;81.24;102389.97;5063271;28;45355;-71
2023/05/17 01:06:35;;;;;;;;;4.67;4.67;;;;;11.92;80.67;102383.97;5068612;28;46212;-71
2023/05/17 01:09:00;;;;;;;;;6.33;5.00;;;;;11.95;82.38;102387.41;5078859;28;45338;-71
2023/05/17 01:11:43;;;;;;;;;5.00;5.00;;;;;11.95;83.52;102391.84;5080755;27;45221;-71
2023/05/17 01:14:30;;;;;;;;;8.33;6.33;;;;;11.93;82.45;102380.41;5067293;28;45387;-72
2023/05/17 01:17:04;;;;;;;;;8.33;6.00;;;;;11.81;83.54;102370.16;5071695;28;46306;-71
2023/05/17 01:19:52;;;;;;;;;9.00;6.00;;;;;11.89;81.36;102378.75;5071717;28;45412;-71
2023/05/17 01:22:49;;;;;;;;;5.00;5.00;;;;;11.85;83.75;102379.75;5068406;28;45299;-70
2023/05/17 01:25:28;;;;;;;;;8.67;8.00;;;;;11.84;84.06;102384.19;5074930;27;45648;-71
2023/05/17 01:27:57;;;;;;;;;8.33;6.00;;;;;11.83;82.94;102390.41;5060154;28;45474;-72
2023/05/17 01:30:25;;;;;;;;;9.33;4.67;;;;;11.75;83.09;102379.13;5066777;28;45455;-71
2023/05/17 01:32:54;;;;;;;;;2.00;1.33;;;;;11.77;82.46;102384.41;5071144;28;45377;-71
2023/05/17 01:35:19;;;;;;;;;9.33;8.33;;;;;11.69;86.05;102371.31;5059609;28;45401;-71
2023/05/17 01:37:45;;;;;;;;;7.00;6.67;;;;;11.59;82.97;102361.84;5074611;28;55837;-71
2023/05/17 01:40:11;;;;;;;;;11.33;9.00;;;;;11.72;83.81;102381.84;5068726;28;45345;-71
2023/05/17 01:42:41;;;;;;;;;6.67;5.00;;;;;11.70;85.72;102388.09;5066976;27;45572;-71
2023/05/17 01:45:07;;;;;;;;;5.00;5.00;;;;;11.68;84.25;102387.25;5078803;28;45296;-71
2023/05/17 01:47:40;;;;;;;;;5.00;5.00;;;;;11.60;85.25;102373.34;5065731;28;45432;-71
2023/05/17 01:50:09;;;;;;;;;10.67;8.00;;;;;11.59;88.70;102375.09;5078964;27;45334;-71
2023/05/17 01:52:46;;;;;;;;;8.67;7.00;;;;;11.64;85.69;102385.59;5062138;28;45499;-72
2023/05/17 01:55:29;;;;;;;;;15.33;8.33;;;;;11.62;86.03;102382.97;5059732;28;45248;-71
2023/05/17 01:57:56;;;;;;;;;8.67;6.33;;;;;11.56;87.92;102372.53;5069505;28;47354;-71
2023/05/17 02:00:24;;;;;;;;;10.00;8.33;;;;;11.56;87.28;102363.72;5074580;28;45281;-71
2023/05/17 02:02:49;;;;;;;;;12.00;10.00;;;;;11.59;88.34;102368.94;5066631;28;45315;-71
2023/05/17 02:05:14;;;;;;;;;10.33;10.00;;;;;11.55;87.60;102370.78;5065414;28;45687;-71
2023/05/17 02:07:40;;;;;;;;;9.67;9.00;;;;;11.59;89.72;102383.06;5058981;28;45321;-71
2023/05/17 02:10:06;;;;;;;;;8.67;8.00;;;;;11.55;90.54;102376.09;5059476;28;45403;-71
2023/05/17 02:12:31;;;;;;;;;13.00;11.67;;;;;11.61;89.45;102389.22;5065099;28;45288;-71
2023/05/17 02:14:56;;;;;;;;;14.00;12.33;;;;;11.55;90.21;102370.78;5058722;28;55734;-71
2023/05/17 02:17:21;;;;;;;;;13.33;11.00;;;;;11.61;90.94;102375.09;5059277;28;50348;-71
2023/05/17 02:19:47;;;;;;;;;18.00;11.67;;;;;11.65;90.06;102374.09;5071942;28;46111;-71
2023/05/17 02:22:12;;;;;;;;;17.33;13.33;;;;;11.76;88.98;102383.53;5069152;28;47616;-72
2023/05/17 02:24:37;;;;;;;;;20.67;13.67;;;;;11.73;88.99;102382.72;5077869;28;45525;-71
2023/05/17 02:27:03;;;;;;;;;16.00;11.00;;;;;11.80;88.37;102389.63;5066796;28;53524;-71
2023/05/17 02:29:28;;;;;;;;;9.67;9.67;;;;;11.71;88.67;102366.00;5065208;28;45330;-71
2023/05/17 02:31:53;;;;;;;;;14.67;11.00;;;;;11.79;91.71;102382.56;5066858;28;45339;-71
2023/05/17 02:34:19;;;;;;;;;16.00;13.00;;;;;11.84;90.55;102392.16;5065520;27;45485;-71
2023/05/17 02:36:44;;;;;;;;;17.33;16.00;;;;;11.91;89.19;102391.03;5059657;27;45380;-71
2023/05/17 02:39:10;;;;;;;;;18.67;12.33;;;;;11.90;88.61;102404.38;5058866;28;45313;-71
2023/05/17 02:41:35;;;;;;;;;15.67;13.33;;;;;11.89;89.50;102407.91;5059299;28;50522;-71
2023/05/17 02:44:00;;;;;;;;;16.00;13.67;;;;;11.91;89.09;102401.66;5071100;27;45457;-71
2023/05/17 02:46:26;;;;;;;;;17.33;13.67;;;;;11.89;90.22;102408.78;5071735;27;45459;-72
2023/05/17 02:48:51;;;;;;;;;12.33;12.33;;;;;11.89;89.27;102407.91;5058775;28;45320;-71
2023/05/17 02:51:16;;;;;;;;;12.67;12.00;;;;;11.79;88.53;102399.34;5065409;28;45295;-71
2023/05/17 02:53:42;;;;;;;;;18.00;14.00;;;;;11.83;92.55;102408.97;5079150;27;45271;-71
2023/05/17 02:56:07;;;;;;;;;18.00;13.33;;;;;11.76;90.07;102410.03;5072299;27;48773;-71
2023/05/17 02:58:32;;;;;;;;;14.00;12.00;;;;;11.78;90.02;102410.84;5069793;28;45427;-71
2023/05/17 03:00:57;;;;;;;;;16.00;14.00;;;;;11.76;91.16;102419.75;5075805;28;45592;-72
2023/05/17 03:03:23;;;;;;;;;15.67;14.67;;;;;11.72;90.73;102413.66;5066665;28;46953;-71
2023/05/17 03:05:48;;;;;;;;;21.00;17.67;;;;;11.69;93.67;102413.72;5076606;27;53082;-71
2023/05/17 03:08:13;;;;;;;;;18.00;13.33;;;;;11.61;91.85;102406.88;5067677;28;45273;-71
2023/05/17 03:10:39;;;;;;;;;14.33;14.33;;;;;11.65;92.58;102408.56;5071962;28;45501;-72
2023/05/17 03:13:04;;;;;;;;;18.33;14.33;;;;;11.63;93.30;102407.69;5067582;28;45320;-71
2023/05/17 03:15:29;;;;;;;;;17.00;15.33;;;;;11.57;93.99;102407.88;5059922;28;59678;-72
2023/05/17 03:17:57;;;;;;;;;15.67;13.33;;;;;11.56;93.76;102409.63;5060376;28;45343;-71
2023/05/17 03:20:23;;;;;;;;;16.00;15.00;;;;;11.49;92.63;102413.34;5061821;28;45368;-71
2023/05/17 03:22:48;;;;;;;;;16.33;15.00;;;;;11.46;93.21;102411.66;5062465;28;45331;-71
2023/05/17 03:25:14;;;;;;;;;16.33;16.00;;;;;11.44;96.05;102405.53;5067255;28;45311;-72
2023/05/17 03:27:39;;;;;;;;;19.75;16.00;;;;;11.39;93.46;102406.53;5081762;27;45342;-72
2023/05/17 03:30:05;;;;;;;;;18.75;14.25;;;;;11.38;93.36;102403.03;5077511;28;45376;-71
2023/05/17 03:32:30;;;;;;;;;16.33;13.67;;;;;11.36;95.22;102410.13;5074569;28;45396;-71
2023/05/17 03:34:56;;;;;;;;;20.67;16.67;;;;;11.35;93.64;102418.13;5061972;28;46122;-71
2023/05/17 03:37:21;;;;;;;;;19.00;16.00;;;;;11.29;95.31;102413.84;5076029;28;45364;-71
2023/05/17 03:39:46;;;;;;;;;21.00;17.00;;;;;11.27;95.60;102409.50;5063255;27;45300;-72
2023/05/17 03:42:12;;;;;;;;;19.50;17.75;;;;;11.32;95.47;102419.06;5074026;28;46449;-71
2023/05/17 03:44:39;;;;;;;;;16.67;15.67;;;;;11.24;96.54;102409.56;5079987;27;45551;-71
2023/05/17 03:47:05;;;;;;;;;24.00;18.67;;;;;11.31;97.10;102422.63;5069409;28;45383;-71
2023/05/17 03:49:30;;;;;;;;;18.50;16.50;;;;;11.29;97.68;102423.56;5061726;28;45992;-71
2023/05/17 03:51:55;;;;;;;;;18.00;16.50;;;;;11.18;97.33;102410.59;5061052;28;49499;-71
2023/05/17 03:54:21;;;;;;;;;22.00;18.50;;;;;11.12;96.68;102404.59;5061369;28;46060;-72
2023/05/17 03:56:47;;;;;;;;;16.75;16.75;;;;;11.20;96.13;102426.44;5060919;28;46415;-71
2023/05/17 03:59:13;;;;;;;;;17.33;16.67;;;;;11.22;97.90;102427.28;5078245;28;45521;-71
2023/05/17 04:01:39;;;;;;;;;17.00;16.00;;;;;11.22;97.94;102425.47;5070618;28;45369;-72
2023/05/17 04:04:04;;;;;;;;;15.33;15.33;;;;;11.13;97.04;102412.47;5064292;28;45455;-71
2023/05/17 04:06:30;;;;;;;;;13.50;13.50;;;;;11.19;97.17;102436.16;5067648;28;45356;-71
2023/05/17 04:08:55;;;;;;;;;20.00;17.00;;;;;11.18;96.48;102437.09;5061549;28;45615;-71
2023/05/17 04:11:22;;;;;;;;;16.33;16.00;;;;;11.16;95.84;102441.53;5061463;28;45339;-71
2023/05/17 04:13:48;;;;;;;;;15.67;15.67;;;;;11.14;96.46;102450.41;5061312;28;46198;-71
2023/05/17 04:16:13;;;;;;;;;20.33;16.00;;;;;11.08;98.41;102435.56;5072186;28;45280;-71
2023/05/17 04:18:39;;;;;;;;;14.00;14.00;;;;;11.14;97.45;102455.72;5063345;27;45210;-71
2023/05/17 04:21:05;;;;;;;;;16.25;15.50;;;;;11.12;95.03;102465.47;5067607;28;45393;-71
2023/05/17 04:23:32;;;;;;;;;17.00;15.00;;;;;11.13;98.43;102464.56;5061543;28;45475;-70
2023/05/17 04:25:57;;;;;;;;;19.67;16.67;;;;;11.07;96.11;102465.56;5073058;28;45300;-71
2023/05/17 04:28:23;;;;;;;;;20.00;15.67;;;;;11.09;94.94;102461.13;5061903;28;45454;-71
2023/05/17 04:30:49;;;;;;;;;18.00;15.67;;;;;11.08;95.34;102458.50;5060432;28;45415;-71
2023/05/17 04:33:14;;;;;;;;;19.00;12.33;;;;;11.10;95.09;102481.38;5060673;28;46050;-71
2023/05/17 04:35:41;;;;;;;;;18.67;17.67;;;;;11.09;96.06;102476.16;5060574;28;45298;-71
2023/05/17 04:38:07;;;;;;;;;19.33;16.33;;;;;11.05;96.41;102475.34;5081463;28;45451;-71
2023/05/17 04:40:33;;;;;;;;;18.00;17.00;;;;;11.04;97.09;102485.94;5068227;28;45301;-72
2023/05/17 04:42:58;;;;;;;;;18.33;17.33;;;;;11.03;96.18;102489.53;5060441;27;46291;-71
2023/05/17 04:45:23;;;;;;;;;19.00;15.67;;;;;11.01;95.59;102489.53;5072680;28;45342;-71
2023/05/17 04:47:49;;;;;;;;;19.25;18.25;;;;;10.96;96.32;102489.63;5062002;28;45542;-71
2023/05/17 04:50:16;;;;;;;;;20.67;16.00;;;;;10.97;98.17;102490.50;5060434;28;45352;-71
2023/05/17 04:52:41;;;;;;;;;20.67;18.67;;;;;10.98;96.87;102498.44;5066161;28;45411;-71
2023/05/17 04:55:07;;;;;;;;;20.67;17.67;;;;;11.01;98.13;102504.56;5068744;27;45333;-71
2023/05/17 04:57:32;;;;;;;;;23.50;17.75;;;;;10.95;95.97;102494.97;5061195;28;45472;-71
2023/05/17 04:59:57;;;;;;;;;20.50;18.25;;;;;11.04;99.05;102500.06;5070512;28;45325;-71
2023/05/17 05:02:23;;;;;;;;;24.00;20.50;;;;;11.07;98.17;102505.28;5063534;28;45299;-71
2023/05/17 05:04:48;;;;;;;;;15.67;15.33;;;;;11.09;97.37;102502.63;5059861;28;45499;-71
2023/05/17 05:07:13;;;;;;;;;21.67;18.33;;;;;11.12;95.67;102508.72;5077823;28;45285;-71
2023/05/17 05:09:38;;;;;;;;;20.67;18.33;;;;;11.09;96.02;102505.28;5070180;27;46820;-71
2023/05/17 05:12:04;;;;;;;;;23.00;20.75;;;;;11.17;98.36;102513.91;5073597;28;55542;-71
2023/05/17 05:14:30;;;;;;;;;18.33;17.33;;;;;11.18;99.33;102521.81;5060568;28;45559;-71
2023/05/17 05:16:55;;;;;;;;;23.00;20.67;;;;;11.17;97.09;102509.47;5065588;28;45336;-70
2023/05/17 05:19:20;;;;;;;;;22.75;22.25;;;;;11.25;95.64;102528.72;5069235;28;45316;-71
2023/05/17 05:21:46;;;;;;;;;22.67;15.67;;;;;11.31;98.37;102525.94;5062667;28;52047;-71
2023/05/17 05:24:11;;;;;;;;;24.33;21.33;;;;;11.34;95.21;102535.59;5060563;28;45328;-71
2023/05/17 05:26:36;;;;;;;;;11.00;8.67;;;;;11.35;94.77;102522.28;5063548;28;45287;-72
2023/05/17 05:29:02;;;;;;;;;27.00;21.00;;;;;11.36;94.31;102523.16;5080555;27;45380;-71
2023/05/17 05:31:28;;;;;;;;;19.33;17.33;;;;;11.46;94.50;102527.34;5066136;28;54442;-70
2023/05/17 05:33:53;;;;;;;;;23.67;20.00;;;;;11.41;94.41;102521.31;5070488;28;45315;-72
2023/05/17 05:36:18;;;;;;;;;19.75;19.75;;;;;11.52;92.38;102540.44;5074055;27;45413;-71
2023/05/17 05:38:44;;;;;;;;;20.25;18.50;;;;;11.50;93.54;102526.38;5059707;28;51293;-71
2023/05/17 05:41:09;;;;;;;;;23.50;16.25;;;;;11.57;93.16;102541.22;5062258;28;45358;-71
2023/05/17 05:43:36;;;;;;;;;18.50;16.25;;;;;11.62;92.96;102539.34;5072959;27;45271;-71
2023/05/17 05:46:01;;;;;;;;;17.67;15.67;;;;;11.68;93.09;102544.47;5066420;28;45375;-71
2023/05/17 05:48:27;;;;;;;;;18.67;16.67;;;;;11.71;91.75;102539.16;5068842;27;45372;-71
2023/05/17 05:50:52;;;;;;;;;21.00;17.67;;;;;11.74;92.15;102541.75;5060002;28;49967;-71
2023/05/17 05:53:17;;;;;;;;;20.67;16.00;;;;;11.81;90.08;102548.63;5060027;28;45453;-71
2023/05/17 05:55:43;;;;;;;;;18.00;17.00;;;;;11.81;90.09;102543.31;5062822;28;45316;-71
2023/05/17 05:58:08;;;;;;;;;19.00;15.33;;;;;11.90;89.39;102552.84;5069183;27;45295;-72
2023/05/17 06:00:34;;;;;;;;;18.00;16.00;;;;;11.92;89.58;102556.31;5062555;28;46507;-71
2023/05/17 06:02:59;;;;;;;;;17.25;16.25;;;;;12.05;90.01;102567.47;5071128;28;45360;-71
2023/05/17 06:05:25;;;;;;;;;26.00;19.50;;;;;12.09;89.01;102570.03;5059508;28;45569;-72
2023/05/17 06:07:50;;;;;;;;;20.25;19.50;;;;;12.17;88.25;102575.16;5059885;28;45360;-71
2023/05/17 06:10:16;;;;;;;;;21.25;16.25;;;;;12.19;87.82;102571.53;5061390;28;49606;-72
2023/05/17 06:12:41;;;;;;;;;23.25;17.00;;;;;12.19;86.90;102574.19;5069972;28;45339;-71
2023/05/17 06:15:07;;;;;;;;;20.00;18.00;;;;;12.28;89.45;102576.59;5061521;28;45282;-72
2023/05/17 06:17:32;;;;;;;;;25.67;20.67;;;;;12.32;86.31;102574.75;5075051;27;45377;-71
2023/05/17 06:19:58;;;;;;;;;20.25;17.75;;;;;12.39;86.50;102590.47;5074322;28;46080;-72
2023/05/17 06:22:23;;;;;;;;;21.33;19.00;;;;;12.39;87.84;102574.56;5075918;28;45380;-72
2023/05/17 06:24:48;;;;;;;;;20.67;18.33;;;;;12.53;85.19;102587.47;5064830;27;45836;-72
2023/05/17 06:27:14;;;;;;;;;21.00;16.00;;;;;12.52;85.30;102591.88;5059374;28;45545;-72
2023/05/17 06:29:39;;;;;;;;;18.00;15.00;;;;;12.62;85.61;102594.28;5059216;28;46424;-71
2023/05/17 06:32:05;;;;;;;;;22.00;16.33;;;;;12.71;85.25;102592.25;5059234;28;45296;-71
2023/05/17 06:34:30;;;;;;;;;16.33;12.00;;;;;12.80;84.09;102596.44;5059081;28;45372;-72
2023/05/17 06:36:55;;;;;;;;;12.33;11.00;;;;;12.83;82.31;102593.69;5079230;27;45760;-72
2023/05/17 06:39:21;;;;;;;;;10.00;10.00;;;;;12.78;79.43;102585.88;5075945;27;45330;-71
2023/05/17 06:41:46;;;;;;;;;10.67;9.67;;;;;12.86;81.16;102594.47;5059043;28;45466;-72
2023/05/17 06:44:11;;;;;;;;;16.67;12.00;;;;;12.83;79.79;102613.16;5070626;27;45371;-72
2023/05/17 06:46:37;;;;;;;;;15.67;11.67;;;;;12.82;79.99;102608.78;5058850;27;45371;-71
2023/05/17 06:49:03;;;;;;;;;14.33;14.33;;;;;12.95;82.31;102606.63;5058322;28;56286;-71
2023/05/17 06:51:28;;;;;;;;;14.00;13.67;;;;;13.03;80.96;102600.19;5057493;28;45410;-72
2023/05/17 06:53:53;;;;;;;;;18.00;14.67;;;;;13.08;81.99;102589.44;5059196;28;45362;-71
2023/05/17 06:56:19;;;;;;;;;17.67;17.00;;;;;13.15;79.54;102603.44;5060927;28;45393;-72
2023/05/17 06:58:44;;;;;;;;;19.67;16.67;;;;;13.12;79.75;102603.53;5058438;28;46104;-72
2023/05/17 07:01:10;;;;;;;;;12.00;10.67;;;;;13.15;79.89;102612.28;5058838;28;45427;-71
2023/05/17 07:03:35;;;;;;;;;11.33;10.67;;;;;13.29;80.11;102617.19;5058688;28;45376;-71
2023/05/17 07:06:00;;;;;;;;;19.00;18.00;;;;;13.36;79.08;102624.06;5058176;28;53520;-71
2023/05/17 07:08:26;;;;;;;;;23.00;15.00;;;;;13.42;79.78;102616.78;5067792;28;45335;-71
2023/05/17 07:10:51;;;;;;;;;17.00;13.00;;;;;13.54;78.45;102619.09;5072050;28;45354;-70
2023/05/17 07:13:17;;;;;;;;;7.00;7.00;;;;;13.57;77.25;102604.81;5059509;27;45339;-70
2023/05/17 07:15:42;;;;;;;;;15.00;13.33;;;;;13.68;77.75;102613.31;5058405;27;45279;-70
2023/05/17 07:18:07;;;;;;;;;11.00;11.00;;;;;13.76;75.22;102618.41;5078653;27;46008;-71
2023/05/17 07:20:33;;;;;;;;;11.67;10.67;;;;;13.78;74.71;102617.44;5064956;27;45217;-70
2023/05/17 07:22:58;;;;;;;;;10.33;8.67;;;;;13.80;74.49;102620.94;5065607;28;45359;-70
2023/05/17 07:25:23;;;;;;;;;11.33;9.67;;;;;13.85;73.04;102623.41;5072105;28;45431;-70
2023/05/17 07:27:49;;;;;;;;;11.67;7.33;;;;;13.92;73.72;102628.50;5065224;27;46021;-71
2023/05/17 07:30:14;;;;;;;;;6.33;6.00;;;;;13.98;74.53;102625.66;5072723;28;58553;-70
2023/05/17 07:32:39;;;;;;;;;9.00;7.00;;;;;13.99;73.33;102629.19;5062749;27;45346;-70
2023/05/17 07:35:05;;;;;;;;;12.00;8.33;;;;;14.08;73.65;102637.75;5075849;27;49202;-70
2023/05/17 07:37:30;;;;;;;;;14.00;8.67;;;;;14.15;73.45;102635.75;5067858;27;46763;-71
2023/05/17 07:39:55;;;;;;;;;8.00;8.00;;;;;14.20;73.68;102631.13;5073624;28;45345;-71
2023/05/17 07:42:21;;;;;;;;;8.00;7.00;;;;;14.18;72.93;102629.44;5058007;28;53103;-71
2023/05/17 07:44:48;;;;;;;;;6.33;5.00;;;;;14.26;74.94;102646.03;5059734;28;46229;-70
2023/05/17 07:47:14;;;;;;;;;4.00;4.00;;;;;14.25;72.62;102644.28;5075139;28;45418;-71
2023/05/17 07:49:39;;;;;;;;;8.33;8.00;;;;;14.28;73.29;102634.41;5058082;28;45422;-71
2023/05/17 07:52:05;;;;;;;;;10.67;10.67;;;;;14.27;71.97;102640.66;5069559;27;45308;-71
2023/05/17 07:54:30;;;;;;;;;8.33;7.67;;;;;14.31;71.54;102650.28;5058081;28;45392;-71
2023/05/17 07:56:56;;;;;;;;;12.00;9.00;;;;;14.22;73.63;102647.06;5057941;27;45509;-71
2023/05/17 07:59:22;;;;;;;;;14.33;10.67;;;;;14.30;71.72;102645.03;5063514;28;45380;-71
2023/05/17 08:01:47;;;;;;;;;13.00;10.33;;;;;14.45;72.16;102649.88;5060970;27;45391;-71
2023/05/17 08:04:15;;;;;;;;;11.33;9.67;;;;;14.60;71.33;102633.34;5064176;28;45292;-71
2023/05/17 08:06:42;;;;;;;;;10.67;10.67;;;;;14.78;72.46;102646.03;5060978;28;45373;-71
2023/05/17 08:09:08;;;;;;;;;14.67;9.00;;;;;14.88;69.09;102652.78;5061407;28;45367;-71
2023/05/17 08:11:33;;;;;;;;;12.00;9.33;;;;;14.84;70.08;102629.84;5061267;28;45445;-71
2023/05/17 08:14:01;;;;;;;;;17.00;12.33;;;;;15.04;69.80;102650.44;5081128;28;45522;-70
2023/05/17 08:16:26;;;;;;;;;10.67;10.67;;;;;15.02;67.43;102649.59;5081261;27;45402;-71
2023/05/17 08:18:51;;;;;;;;;15.33;13.00;;;;;14.90;67.58;102645.59;5081348;28;46132;-71
2023/05/17 08:21:17;;;;;;;;;13.33;10.33;;;;;14.98;68.42;102646.22;5073111;27;45359;-71
2023/05/17 08:23:42;;;;;;;;;5.67;4.67;;;;;15.06;67.24;102630.78;5061392;28;45249;-71
2023/05/17 08:26:08;;;;;;;;;9.00;7.00;;;;;15.24;65.79;102639.91;5065759;28;46271;-71
2023/05/17 08:28:33;;;;;;;;;9.33;7.00;;;;;15.31;66.11;102635.22;5061292;28;45426;-71
2023/05/17 08:30:59;;;;;;;;;12.33;8.67;;;;;15.37;65.03;102633.19;5080680;28;45299;-72
2023/05/17 08:33:24;;;;;;;;;10.00;9.00;;;;;15.56;66.16;102636.06;5081097;27;45291;-71
2023/05/17 08:35:53;;;;;;;;;8.00;6.33;;;;;15.60;64.07;102632.34;5067561;27;46024;-70
2023/05/17 08:38:19;;;;;;;;;9.67;7.00;;;;;15.65;63.90;102633.03;5067588;27;45308;-70
2023/05/17 08:40:53;;;;;;;;;10.00;7.00;;;;;15.76;64.32;102624.59;5060830;28;45280;-71
2023/05/17 08:43:20;;;;;;;;;13.00;7.67;;;;;15.84;65.05;102636.69;5068998;28;45403;-70
2023/05/17 08:45:45;;;;;;;;;10.33;7.33;;;;;16.01;64.54;102628.88;5067921;28;46349;-70
2023/05/17 08:48:11;;;;;;;;;7.67;6.33;;;;;16.06;60.50;102620.69;5074890;28;45354;-71
2023/05/17 08:50:37;;;;;;;;;9.00;7.00;;;;;15.98;59.70;102609.47;5073512;28;45326;-70
2023/05/17 08:53:03;;;;;;;;;3.67;3.67;;;;;16.08;60.70;102633.03;5061021;28;45428;-71
2023/05/17 08:55:31;;;;;;;;;6.67;5.67;;;;;16.16;63.77;102614.91;5061268;28;46195;-71
2023/05/17 08:57:58;;;;;;;;;9.00;6.00;;;;;16.31;62.60;102597.38;5060740;28;45300;-70
2023/05/17 09:00:25;;;;;;;;;8.00;7.00;;;;;16.45;59.95;102607.47;5074090;28;45468;-71
2023/05/17 09:02:50;;;;;;;;;5.00;4.00;;;;;16.53;60.31;102614.22;5060402;28;45575;-71
2023/05/17 09:05:16;;;;;;;;;5.33;5.33;;;;;16.55;58.86;102598.16;5060244;28;46121;-71
2023/05/17 09:07:41;;;;;;;;;5.33;4.33;;;;;16.64;58.36;102605.78;5060802;28;45347;-71
2023/05/17 09:10:07;;;;;;;;;7.00;4.00;;;;;16.74;58.26;102611.59;5060580;28;45288;-71
2023/05/17 09:12:34;;;;;;;;;7.00;6.33;;;;;16.82;57.19;102607.63;5066334;28;45298;-71
2023/05/17 09:15:19;;;;;;;;;7.33;6.00;;;;;16.91;58.67;102606.38;5059714;28;46025;-70
2023/05/17 09:17:52;;;;;;;;;11.67;8.00;;;;;17.05;58.83;102606.59;5065350;28;45531;-70
2023/05/17 09:20:32;;;;;;;;;6.00;6.00;;;;;17.10;55.93;102601.91;5061886;28;45388;-73
2023/05/17 09:22:58;;;;;;;;;7.00;6.00;;;;;17.04;53.83;102595.06;5072195;28;45406;-71
2023/05/17 09:25:24;;;;;;;;;7.00;6.00;;;;;17.13;54.80;102609.78;5080087;27;45341;-72
2023/05/17 09:27:53;;;;;;;;;7.00;5.00;;;;;17.16;55.83;102604.31;5073392;28;45402;-71
2023/05/17 09:30:25;;;;;;;;;8.33;8.00;;;;;17.25;55.10;102598.53;5073758;28;45400;-71
2023/05/17 09:32:52;;;;;;;;;7.33;7.33;;;;;17.31;53.89;102608.94;5064132;28;45453;-71
2023/05/17 09:35:17;;;;;;;;;6.33;5.00;;;;;17.29;54.86;102607.28;5059448;28;45472;-71
2023/05/17 09:37:45;;;;;;;;;4.33;4.00;;;;;17.43;54.42;102604.84;5061692;28;45464;-71
2023/05/17 09:40:21;;;;;;;;;5.33;5.33;;;;;17.51;56.05;102605.31;5059899;28;45372;-71
2023/05/17 09:42:46;;;;;;;;;6.00;5.00;;;;;17.58;53.17;102596.97;5061623;27;45291;-72
2023/05/17 09:45:13;;;;;;;;;5.00;4.00;;;;;17.62;53.78;102603.94;5070314;28;45464;-72
2023/05/17 09:47:38;;;;;;;;;6.33;5.00;;;;;17.71;54.86;102605.28;5059724;28;45296;-71
2023/05/17 09:50:05;;;;;;;;;6.00;5.00;;;;;17.86;54.91;102609.03;5058990;28;50178;-71
2023/05/17 09:52:30;;;;;;;;;6.00;6.00;;;;;17.92;52.95;102598.91;5077150;28;45370;-71
2023/05/17 09:54:59;;;;;;;;;6.00;6.00;;;;;18.05;53.39;102599.16;5069490;27;46275;-72
2023/05/17 09:57:36;;;;;;;;;7.67;5.00;;;;;18.20;55.12;102604.59;5059829;28;45237;-72
2023/05/17 10:00:08;;;;;;;;;7.00;5.00;;;;;18.33;52.89;102588.78;5070530;28;45564;-71
2023/05/17 10:02:36;;;;;;;;;5.33;5.33;;;;;18.34;52.31;102598.56;5074015;28;45299;-70
2023/05/17 10:05:06;;;;;;;;;5.00;4.00;;;;;18.38;53.05;102586.75;5058935;28;46901;-73
2023/05/17 10:07:33;;;;;;;;;4.00;3.00;;;;;18.51;53.36;102589.69;5059736;28;45367;-71
2023/05/17 10:09:59;;;;;;;;;3.33;1.33;;;;;18.56;50.36;102584.94;5059453;28;45460;-71
2023/05/17 10:12:29;;;;;;;;;6.33;5.00;;;;;18.62;52.80;102588.16;5066065;28;45318;-72
2023/05/17 10:14:55;;;;;;;;;5.67;4.33;;;;;18.76;52.82;102575.84;5071458;27;46206;-70
2023/05/17 10:17:22;;;;;;;;;4.00;4.00;;;;;18.88;50.42;102580.56;5067202;27;45815;-70
2023/05/17 10:19:48;;;;;;;;;4.00;3.00;;;;;18.97;50.58;102580.06;5075848;27;45335;-71
2023/05/17 10:22:15;;;;;;;;;2.00;2.00;;;;;19.04;49.29;102576.94;5059628;28;45241;-71
2023/05/17 10:24:42;;;;;;;;;3.33;3.00;;;;;19.23;49.28;102583.06;5059021;28;46008;-70
2023/05/17 10:27:08;;;;;;;;;2.67;2.67;;;;;19.35;49.82;102575.28;5073869;28;45457;-70
2023/05/17 10:29:37;;;;;;;;;4.67;3.33;;;;;19.37;46.76;102576.91;5068675;27;45499;-72
2023/05/17 10:32:07;;;;;;;;;3.00;3.00;;;;;19.30;47.34;102585.41;5067438;28;45428;-71
2023/05/17 10:34:37;;;;;;;;;3.00;2.67;;;;;19.37;47.26;102566.19;5065778;27;45445;-70
2023/05/17 10:37:03;;;;;;;;;4.67;3.67;;;;;19.44;46.82;102562.25;5059356;28;45326;-71
2023/05/17 10:39:33;;;;;;;;;3.00;3.00;;;;;19.50;46.98;102571.78;5059377;28;45499;-70
2023/05/17 10:42:01;;;;;;;;;5.33;3.00;;;;;19.51;46.94;102571.69;5058871;28;45590;-70
2023/05/17 10:44:29;;;;;;;;;4.00;3.00;;;;;19.57;46.77;102560.59;5062549;28;45549;-71
2023/05/17 10:46:56;;;;;;;;;3.33;3.33;;;;;19.60;45.42;102541.63;5074177;27;45228;-70
2023/05/17 10:49:28;;;;;;;;;2.33;2.33;;;;;19.79;47.49;102554.00;5077757;28;45369;-70
2023/05/17 10:51:53;;;;;;;;;2.00;1.33;;;;;19.93;45.29;102562.09;5073324;27;45548;-70
2023/05/17 10:54:18;;;;;;;;;3.00;1.67;;;;;20.00;45.92;102536.63;5069028;28;45769;-71
2023/05/17 10:56:49;;;;;;;;;4.67;2.67;;;;;20.05;46.09;102548.84;5060256;28;45418;-71
2023/05/17 10:59:20;;;;;;;;;2.33;1.67;;;;;20.00;45.42;102547.38;5059246;28;45383;-71
2023/05/17 11:01:56;;;;;;;;;1.33;1.33;;;;;19.68;46.91;102535.81;5065520;28;45329;-71
2023/05/17 11:04:24;;;;;;;;;2.67;2.67;;;;;19.50;46.19;102542.25;5078714;27;46027;-71
2023/05/17 11:06:51;;;;;;;;;1.67;1.67;;;;;19.49;45.94;102553.94;5078386;27;45485;-73
2023/05/17 11:09:17;;;;;;;;;1.33;1.33;;;;;19.32;45.09;102544.13;5072511;27;45403;-72
2023/05/17 11:12:08;;;;;;;;;2.00;2.00;;;;;19.18;47.87;102547.56;5058871;28;45446;-71
2023/05/17 11:14:43;;;;;;;;;4.33;3.00;;;;;19.08;47.61;102540.97;5064040;27;45447;-71